sensor_id;sensor_type;location;lat;lon;timestamp;P1;durP1;ratioP1;P2;durP2;ratioP2
9124;SDS011;4597;48.730;9.114;2022-11-20T00:02:24;14.03;;;8.90;;
9124;SDS011;4597;48.730;9.114;2022-11-20T00:04:49;14.47;;;9.23;;
9124;SDS011;4597;48.730;9.114;2022-11-20T00:07:15;16.20;;;9.50;;
9124;SDS011;4597;48.730;9.114;2022-11-20T00:09:40;13.73;;;10.13;;
9124;SDS011;4597;48.730;9.114;2022-11-20T00:12:06;17.63;;;9.60;;
9124;SDS011;4597;48.730;9.114;2022-11-20T00:14:31;17.97;;;9.77;;
9124;SDS011;4597;48.730;9.114;2022-11-20T00:16:57;13.87;;;10.33;;
9124;SDS011;4597;48.730;9.114;2022-11-20T00:19:22;14.80;;;10.70;;
9124;SDS011;4597;48.730;9.114;2022-11-20T00:21:48;20.20;;;10.27;;
9124;SDS011;4597;48.730;9.114;2022-11-20T00:24:16;17.83;;;9.27;;
9124;SDS011;4597;48.730;9.114;2022-11-20T00:26:41;28.07;;;10.33;;
9124;SDS011;4597;48.730;9.114;2022-11-20T00:29:08;15.37;;;10.63;;
9124;SDS011;4597;48.730;9.114;2022-11-20T00:31:34;16.83;;;9.70;;
9124;SDS011;4597;48.730;9.114;2022-11-20T00:34:00;21.37;;;10.60;;
9124;SDS011;4597;48.730;9.114;2022-11-20T00:36:26;33.17;;;11.63;;
9124;SDS011;4597;48.730;9.114;2022-11-20T00:38:53;16.23;;;9.80;;
9124;SDS011;4597;48.730;9.114;2022-11-20T00:41:20;35.77;;;10.10;;
9124;SDS011;4597;48.730;9.114;2022-11-20T00:43:46;25.23;;;10.40;;
9124;SDS011;4597;48.730;9.114;2022-11-20T00:46:15;19.27;;;10.37;;
9124;SDS011;4597;48.730;9.114;2022-11-20T00:48:43;29.00;;;9.87;;
9124;SDS011;4597;48.730;9.114;2022-11-20T00:51:10;19.17;;;9.60;;
9124;SDS011;4597;48.730;9.114;2022-11-20T00:53:38;11.80;;;9.20;;
9124;SDS011;4597;48.730;9.114;2022-11-20T00:56:05;13.50;;;8.80;;
9124;SDS011;4597;48.730;9.114;2022-11-20T00:58:36;21.13;;;9.33;;
9124;SDS011;4597;48.730;9.114;2022-11-20T01:01:04;33.63;;;9.87;;
9124;SDS011;4597;48.730;9.114;2022-11-20T01:03:35;20.77;;;9.17;;
9124;SDS011;4597;48.730;9.114;2022-11-20T01:06:03;19.27;;;9.27;;
9124;SDS011;4597;48.730;9.114;2022-11-20T01:08:35;20.13;;;9.50;;
9124;SDS011;4597;48.730;9.114;2022-11-20T01:11:01;20.10;;;9.23;;
9124;SDS011;4597;48.730;9.114;2022-11-20T01:13:29;29.77;;;9.43;;
9124;SDS011;4597;48.730;9.114;2022-11-20T01:16:09;19.40;;;9.53;;
9124;SDS011;4597;48.730;9.114;2022-11-20T01:18:37;21.83;;;9.77;;
9124;SDS011;4597;48.730;9.114;2022-11-20T01:21:06;13.97;;;9.40;;
9124;SDS011;4597;48.730;9.114;2022-11-20T01:23:40;18.33;;;9.60;;
9124;SDS011;4597;48.730;9.114;2022-11-20T01:26:08;15.23;;;9.30;;
9124;SDS011;4597;48.730;9.114;2022-11-20T01:28:36;15.23;;;8.67;;
9124;SDS011;4597;48.730;9.114;2022-11-20T01:31:10;32.23;;;11.27;;
9124;SDS011;4597;48.730;9.114;2022-11-20T01:33:44;13.73;;;8.67;;
9124;SDS011;4597;48.730;9.114;2022-11-20T01:36:11;12.63;;;9.10;;
9124;SDS011;4597;48.730;9.114;2022-11-20T01:38:37;24.40;;;9.63;;
9124;SDS011;4597;48.730;9.114;2022-11-20T01:41:03;12.90;;;8.67;;
9124;SDS011;4597;48.730;9.114;2022-11-20T01:43:29;15.57;;;9.33;;
9124;SDS011;4597;48.730;9.114;2022-11-20T01:48:31;10.80;;;8.70;;
9124;SDS011;4597;48.730;9.114;2022-11-20T01:51:02;12.17;;;9.40;;
9124;SDS011;4597;48.730;9.114;2022-11-20T01:53:32;10.73;;;8.20;;
9124;SDS011;4597;48.730;9.114;2022-11-20T01:56:01;11.17;;;8.80;;
9124;SDS011;4597;48.730;9.114;2022-11-20T01:58:32;10.13;;;8.83;;
9124;SDS011;4597;48.730;9.114;2022-11-20T02:01:00;12.30;;;8.70;;
9124;SDS011;4597;48.730;9.114;2022-11-20T02:03:27;12.40;;;8.40;;
9124;SDS011;4597;48.730;9.114;2022-11-20T02:06:12;11.90;;;9.67;;
9124;SDS011;4597;48.730;9.114;2022-11-20T02:08:48;11.97;;;8.97;;
9124;SDS011;4597;48.730;9.114;2022-11-20T02:11:15;13.83;;;9.50;;
9124;SDS011;4597;48.730;9.114;2022-11-20T02:13:40;10.70;;;8.87;;
9124;SDS011;4597;48.730;9.114;2022-11-20T02:16:23;11.00;;;8.47;;
9124;SDS011;4597;48.730;9.114;2022-11-20T02:18:58;12.07;;;8.17;;
9124;SDS011;4597;48.730;9.114;2022-11-20T02:26:28;8.37;;;7.27;;
9124;SDS011;4597;48.730;9.114;2022-11-20T02:28:55;9.17;;;7.60;;
9124;SDS011;4597;48.730;9.114;2022-11-20T02:31:21;9.70;;;7.97;;
9124;SDS011;4597;48.730;9.114;2022-11-20T02:33:47;10.87;;;7.80;;
9124;SDS011;4597;48.730;9.114;2022-11-20T02:36:14;9.23;;;7.50;;
9124;SDS011;4597;48.730;9.114;2022-11-20T02:38:41;7.30;;;6.60;;
9124;SDS011;4597;48.730;9.114;2022-11-20T02:41:07;7.33;;;6.53;;
9124;SDS011;4597;48.730;9.114;2022-11-20T02:43:32;7.30;;;6.60;;
9124;SDS011;4597;48.730;9.114;2022-11-20T02:45:58;7.40;;;6.37;;
9124;SDS011;4597;48.730;9.114;2022-11-20T02:48:23;6.70;;;6.10;;
9124;SDS011;4597;48.730;9.114;2022-11-20T02:50:49;5.63;;;5.13;;
9124;SDS011;4597;48.730;9.114;2022-11-20T02:53:14;5.77;;;5.20;;
9124;SDS011;4597;48.730;9.114;2022-11-20T02:55:40;5.90;;;5.30;;
9124;SDS011;4597;48.730;9.114;2022-11-20T02:58:05;5.00;;;4.50;;
9124;SDS011;4597;48.730;9.114;2022-11-20T03:00:31;5.13;;;4.73;;
9124;SDS011;4597;48.730;9.114;2022-11-20T03:02:57;5.40;;;4.90;;
9124;SDS011;4597;48.730;9.114;2022-11-20T03:05:22;8.67;;;5.40;;
9124;SDS011;4597;48.730;9.114;2022-11-20T03:07:48;5.33;;;4.93;;
9124;SDS011;4597;48.730;9.114;2022-11-20T03:10:13;5.60;;;5.10;;
9124;SDS011;4597;48.730;9.114;2022-11-20T03:12:39;5.47;;;4.97;;
9124;SDS011;4597;48.730;9.114;2022-11-20T03:15:04;4.97;;;4.47;;
9124;SDS011;4597;48.730;9.114;2022-11-20T03:17:30;5.80;;;5.20;;
9124;SDS011;4597;48.730;9.114;2022-11-20T03:19:56;6.10;;;5.10;;
9124;SDS011;4597;48.730;9.114;2022-11-20T03:22:21;5.73;;;5.23;;
9124;SDS011;4597;48.730;9.114;2022-11-20T03:24:47;5.50;;;5.00;;
9124;SDS011;4597;48.730;9.114;2022-11-20T03:27:12;5.47;;;4.97;;
9124;SDS011;4597;48.730;9.114;2022-11-20T03:29:38;5.93;;;5.27;;
9124;SDS011;4597;48.730;9.114;2022-11-20T03:32:04;5.27;;;4.87;;
9124;SDS011;4597;48.730;9.114;2022-11-20T03:34:30;5.93;;;5.33;;
9124;SDS011;4597;48.730;9.114;2022-11-20T03:36:55;5.47;;;4.97;;
9124;SDS011;4597;48.730;9.114;2022-11-20T03:39:21;5.93;;;5.03;;
9124;SDS011;4597;48.730;9.114;2022-11-20T03:41:46;5.57;;;5.07;;
9124;SDS011;4597;48.730;9.114;2022-11-20T03:44:12;5.83;;;5.13;;
9124;SDS011;4597;48.730;9.114;2022-11-20T03:46:37;4.90;;;4.40;;
9124;SDS011;4597;48.730;9.114;2022-11-20T03:49:03;4.70;;;4.30;;
9124;SDS011;4597;48.730;9.114;2022-11-20T03:51:32;5.53;;;4.60;;
9124;SDS011;4597;48.730;9.114;2022-11-20T03:54:00;5.03;;;4.50;;
9124;SDS011;4597;48.730;9.114;2022-11-20T03:56:28;4.80;;;4.43;;
9124;SDS011;4597;48.730;9.114;2022-11-20T03:58:55;4.20;;;3.90;;
9124;SDS011;4597;48.730;9.114;2022-11-20T04:01:22;5.30;;;4.80;;
9124;SDS011;4597;48.730;9.114;2022-11-20T04:03:59;4.93;;;4.53;;
9124;SDS011;4597;48.730;9.114;2022-11-20T04:06:26;5.73;;;4.63;;
9124;SDS011;4597;48.730;9.114;2022-11-20T04:08:54;5.63;;;4.40;;
9124;SDS011;4597;48.730;9.114;2022-11-20T04:11:22;4.07;;;3.67;;
9124;SDS011;4597;48.730;9.114;2022-11-20T04:13:49;4.83;;;3.70;;
9124;SDS011;4597;48.730;9.114;2022-11-20T04:16:16;4.00;;;3.50;;
9124;SDS011;4597;48.730;9.114;2022-11-20T04:18:43;3.60;;;3.07;;
9124;SDS011;4597;48.730;9.114;2022-11-20T04:21:09;5.77;;;3.57;;
9124;SDS011;4597;48.730;9.114;2022-11-20T04:23:35;3.40;;;3.20;;
9124;SDS011;4597;48.730;9.114;2022-11-20T04:26:04;3.60;;;3.10;;
9124;SDS011;4597;48.730;9.114;2022-11-20T04:28:34;3.37;;;3.10;;
9124;SDS011;4597;48.730;9.114;2022-11-20T04:31:04;5.07;;;3.20;;
9124;SDS011;4597;48.730;9.114;2022-11-20T04:33:31;5.90;;;2.60;;
9124;SDS011;4597;48.730;9.114;2022-11-20T04:36:02;3.07;;;2.87;;
9124;SDS011;4597;48.730;9.114;2022-11-20T04:38:29;3.23;;;2.93;;
9124;SDS011;4597;48.730;9.114;2022-11-20T04:40:56;3.40;;;3.10;;
9124;SDS011;4597;48.730;9.114;2022-11-20T04:43:23;3.00;;;2.80;;
9124;SDS011;4597;48.730;9.114;2022-11-20T04:45:52;2.83;;;2.63;;
9124;SDS011;4597;48.730;9.114;2022-11-20T04:48:19;3.03;;;2.83;;
9124;SDS011;4597;48.730;9.114;2022-11-20T04:50:45;2.80;;;2.60;;
9124;SDS011;4597;48.730;9.114;2022-11-20T04:53:10;3.40;;;2.67;;
9124;SDS011;4597;48.730;9.114;2022-11-20T04:55:36;2.70;;;2.50;;
9124;SDS011;4597;48.730;9.114;2022-11-20T04:58:01;2.90;;;2.70;;
9124;SDS011;4597;48.730;9.114;2022-11-20T05:00:27;3.07;;;2.87;;
9124;SDS011;4597;48.730;9.114;2022-11-20T05:02:52;3.63;;;2.90;;
9124;SDS011;4597;48.730;9.114;2022-11-20T05:05:18;3.13;;;2.60;;
9124;SDS011;4597;48.730;9.114;2022-11-20T05:07:43;3.07;;;2.73;;
9124;SDS011;4597;48.730;9.114;2022-11-20T05:10:09;2.93;;;2.67;;
9124;SDS011;4597;48.730;9.114;2022-11-20T05:12:34;3.10;;;2.80;;
9124;SDS011;4597;48.730;9.114;2022-11-20T05:15:00;2.73;;;2.53;;
9124;SDS011;4597;48.730;9.114;2022-11-20T05:17:25;2.93;;;2.60;;
9124;SDS011;4597;48.730;9.114;2022-11-20T05:19:51;3.07;;;2.60;;
9124;SDS011;4597;48.730;9.114;2022-11-20T05:22:16;3.00;;;2.80;;
9124;SDS011;4597;48.730;9.114;2022-11-20T05:24:42;4.57;;;2.40;;
9124;SDS011;4597;48.730;9.114;2022-11-20T05:27:07;3.97;;;3.57;;
9124;SDS011;4597;48.730;9.114;2022-11-20T05:29:33;5.17;;;3.90;;
9124;SDS011;4597;48.730;9.114;2022-11-20T05:31:58;3.20;;;3.00;;
9124;SDS011;4597;48.730;9.114;2022-11-20T05:34:24;3.63;;;3.00;;
9124;SDS011;4597;48.730;9.114;2022-11-20T05:36:49;2.80;;;2.60;;
9124;SDS011;4597;48.730;9.114;2022-11-20T05:39:15;3.20;;;2.33;;
9124;SDS011;4597;48.730;9.114;2022-11-20T05:41:40;2.50;;;2.30;;
9124;SDS011;4597;48.730;9.114;2022-11-20T05:44:06;3.57;;;2.17;;
9124;SDS011;4597;48.730;9.114;2022-11-20T05:46:31;2.33;;;2.13;;
9124;SDS011;4597;48.730;9.114;2022-11-20T05:48:57;2.17;;;2.07;;
9124;SDS011;4597;48.730;9.114;2022-11-20T05:51:23;2.23;;;1.90;;
9124;SDS011;4597;48.730;9.114;2022-11-20T05:53:50;2.90;;;1.90;;
9124;SDS011;4597;48.730;9.114;2022-11-20T05:56:16;3.77;;;2.20;;
9124;SDS011;4597;48.730;9.114;2022-11-20T05:58:43;2.10;;;1.90;;
9124;SDS011;4597;48.730;9.114;2022-11-20T06:01:11;2.30;;;1.90;;
9124;SDS011;4597;48.730;9.114;2022-11-20T06:03:39;2.10;;;1.90;;
9124;SDS011;4597;48.730;9.114;2022-11-20T06:06:05;1.50;;;1.40;;
9124;SDS011;4597;48.730;9.114;2022-11-20T06:08:31;1.37;;;1.33;;
9124;SDS011;4597;48.730;9.114;2022-11-20T06:10:57;2.37;;;1.77;;
9124;SDS011;4597;48.730;9.114;2022-11-20T06:13:23;1.60;;;1.50;;
9124;SDS011;4597;48.730;9.114;2022-11-20T06:15:50;1.87;;;1.77;;
9124;SDS011;4597;48.730;9.114;2022-11-20T06:18:16;1.90;;;1.40;;
9124;SDS011;4597;48.730;9.114;2022-11-20T06:20:41;3.67;;;1.60;;
9124;SDS011;4597;48.730;9.114;2022-11-20T06:23:07;2.53;;;1.60;;
9124;SDS011;4597;48.730;9.114;2022-11-20T06:25:33;1.60;;;1.50;;
9124;SDS011;4597;48.730;9.114;2022-11-20T06:28:01;1.43;;;1.33;;
9124;SDS011;4597;48.730;9.114;2022-11-20T06:30:27;1.50;;;1.30;;
9124;SDS011;4597;48.730;9.114;2022-11-20T06:32:52;1.43;;;1.33;;
9124;SDS011;4597;48.730;9.114;2022-11-20T06:35:18;1.43;;;1.33;;
9124;SDS011;4597;48.730;9.114;2022-11-20T06:37:43;1.73;;;1.40;;
9124;SDS011;4597;48.730;9.114;2022-11-20T06:40:09;2.03;;;1.37;;
9124;SDS011;4597;48.730;9.114;2022-11-20T06:42:35;1.50;;;1.40;;
9124;SDS011;4597;48.730;9.114;2022-11-20T06:45:00;1.40;;;1.30;;
9124;SDS011;4597;48.730;9.114;2022-11-20T06:47:26;1.10;;;1.10;;
9124;SDS011;4597;48.730;9.114;2022-11-20T06:49:51;1.37;;;1.20;;
9124;SDS011;4597;48.730;9.114;2022-11-20T06:52:17;1.33;;;1.23;;
9124;SDS011;4597;48.730;9.114;2022-11-20T06:54:42;1.43;;;1.37;;
9124;SDS011;4597;48.730;9.114;2022-11-20T06:57:08;1.40;;;1.30;;
9124;SDS011;4597;48.730;9.114;2022-11-20T06:59:33;1.47;;;1.37;;
9124;SDS011;4597;48.730;9.114;2022-11-20T07:01:59;1.37;;;1.33;;
9124;SDS011;4597;48.730;9.114;2022-11-20T07:04:24;1.10;;;1.10;;
9124;SDS011;4597;48.730;9.114;2022-11-20T07:06:50;1.20;;;1.20;;
9124;SDS011;4597;48.730;9.114;2022-11-20T07:09:15;1.30;;;1.20;;
9124;SDS011;4597;48.730;9.114;2022-11-20T07:11:41;1.40;;;1.30;;
9124;SDS011;4597;48.730;9.114;2022-11-20T07:14:06;1.10;;;1.10;;
9124;SDS011;4597;48.730;9.114;2022-11-20T07:16:32;1.40;;;1.30;;
9124;SDS011;4597;48.730;9.114;2022-11-20T07:18:57;1.17;;;1.07;;
9124;SDS011;4597;48.730;9.114;2022-11-20T07:21:23;1.83;;;1.50;;
9124;SDS011;4597;48.730;9.114;2022-11-20T07:23:48;1.03;;;1.03;;
9124;SDS011;4597;48.730;9.114;2022-11-20T07:26:14;1.17;;;1.10;;
9124;SDS011;4597;48.730;9.114;2022-11-20T07:28:40;1.20;;;1.10;;
9124;SDS011;4597;48.730;9.114;2022-11-20T07:31:08;1.27;;;1.20;;
9124;SDS011;4597;48.730;9.114;2022-11-20T07:33:34;1.40;;;1.10;;
9124;SDS011;4597;48.730;9.114;2022-11-20T07:35:59;0.90;;;0.90;;
9124;SDS011;4597;48.730;9.114;2022-11-20T07:38:25;1.47;;;1.20;;
9124;SDS011;4597;48.730;9.114;2022-11-20T07:40:54;1.67;;;1.17;;
9124;SDS011;4597;48.730;9.114;2022-11-20T07:43:21;1.03;;;1.03;;
9124;SDS011;4597;48.730;9.114;2022-11-20T07:45:46;0.80;;;0.80;;
9124;SDS011;4597;48.730;9.114;2022-11-20T07:48:12;1.20;;;1.10;;
9124;SDS011;4597;48.730;9.114;2022-11-20T07:50:38;0.83;;;0.83;;
9124;SDS011;4597;48.730;9.114;2022-11-20T07:53:04;2.30;;;1.30;;
9124;SDS011;4597;48.730;9.114;2022-11-20T07:55:29;1.30;;;1.20;;
9124;SDS011;4597;48.730;9.114;2022-11-20T07:57:56;1.07;;;0.97;;
9124;SDS011;4597;48.730;9.114;2022-11-20T08:00:22;1.63;;;1.00;;
9124;SDS011;4597;48.730;9.114;2022-11-20T08:02:48;0.90;;;0.90;;
9124;SDS011;4597;48.730;9.114;2022-11-20T08:05:13;1.17;;;0.77;;
9124;SDS011;4597;48.730;9.114;2022-11-20T08:07:39;0.80;;;0.80;;
9124;SDS011;4597;48.730;9.114;2022-11-20T08:10:07;0.83;;;0.83;;
9124;SDS011;4597;48.730;9.114;2022-11-20T08:12:33;1.00;;;1.00;;
9124;SDS011;4597;48.730;9.114;2022-11-20T08:15:17;0.80;;;0.80;;
9124;SDS011;4597;48.730;9.114;2022-11-20T08:17:43;0.80;;;0.80;;
9124;SDS011;4597;48.730;9.114;2022-11-20T08:20:09;3.47;;;1.33;;
9124;SDS011;4597;48.730;9.114;2022-11-20T08:22:35;1.00;;;1.00;;
9124;SDS011;4597;48.730;9.114;2022-11-20T08:25:00;1.80;;;1.17;;
9124;SDS011;4597;48.730;9.114;2022-11-20T08:27:26;1.17;;;1.17;;
9124;SDS011;4597;48.730;9.114;2022-11-20T08:29:51;1.40;;;1.23;;
9124;SDS011;4597;48.730;9.114;2022-11-20T08:32:17;1.43;;;1.33;;
9124;SDS011;4597;48.730;9.114;2022-11-20T08:34:42;1.47;;;1.10;;
9124;SDS011;4597;48.730;9.114;2022-11-20T08:37:08;0.90;;;0.90;;
9124;SDS011;4597;48.730;9.114;2022-11-20T08:39:34;1.20;;;1.10;;
9124;SDS011;4597;48.730;9.114;2022-11-20T08:41:59;1.20;;;1.10;;
9124;SDS011;4597;48.730;9.114;2022-11-20T08:44:25;1.30;;;1.23;;
9124;SDS011;4597;48.730;9.114;2022-11-20T08:46:50;1.03;;;1.03;;
9124;SDS011;4597;48.730;9.114;2022-11-20T08:49:16;1.13;;;1.13;;
9124;SDS011;4597;48.730;9.114;2022-11-20T08:51:42;1.73;;;1.20;;
9124;SDS011;4597;48.730;9.114;2022-11-20T08:54:08;1.20;;;1.20;;
9124;SDS011;4597;48.730;9.114;2022-11-20T08:56:34;1.10;;;1.10;;
9124;SDS011;4597;48.730;9.114;2022-11-20T08:59:00;1.30;;;1.20;;
9124;SDS011;4597;48.730;9.114;2022-11-20T09:01:25;1.30;;;1.20;;
9124;SDS011;4597;48.730;9.114;2022-11-20T09:03:52;1.20;;;1.20;;
9124;SDS011;4597;48.730;9.114;2022-11-20T09:06:20;1.77;;;1.20;;
9124;SDS011;4597;48.730;9.114;2022-11-20T09:08:45;1.00;;;1.00;;
9124;SDS011;4597;48.730;9.114;2022-11-20T09:11:11;1.57;;;1.47;;
9124;SDS011;4597;48.730;9.114;2022-11-20T09:13:36;1.30;;;1.10;;
9124;SDS011;4597;48.730;9.114;2022-11-20T09:16:03;1.50;;;1.40;;
9124;SDS011;4597;48.730;9.114;2022-11-20T09:18:31;1.30;;;1.30;;
9124;SDS011;4597;48.730;9.114;2022-11-20T09:20:58;1.30;;;1.30;;
9124;SDS011;4597;48.730;9.114;2022-11-20T09:23:25;1.63;;;1.40;;
9124;SDS011;4597;48.730;9.114;2022-11-20T09:25:51;1.50;;;1.40;;
9124;SDS011;4597;48.730;9.114;2022-11-20T09:28:17;2.00;;;1.90;;
9124;SDS011;4597;48.730;9.114;2022-11-20T09:30:43;1.70;;;1.60;;
9124;SDS011;4597;48.730;9.114;2022-11-20T09:33:09;2.17;;;2.07;;
9124;SDS011;4597;48.730;9.114;2022-11-20T09:35:35;2.20;;;2.10;;
9124;SDS011;4597;48.730;9.114;2022-11-20T09:38:04;3.40;;;1.97;;
9124;SDS011;4597;48.730;9.114;2022-11-20T09:40:31;2.23;;;2.03;;
9124;SDS011;4597;48.730;9.114;2022-11-20T09:43:01;2.40;;;2.20;;
9124;SDS011;4597;48.730;9.114;2022-11-20T09:56:38;2.87;;;2.67;;
9124;SDS011;4597;48.730;9.114;2022-11-20T09:59:06;2.50;;;2.40;;
9124;SDS011;4597;48.730;9.114;2022-11-20T10:01:39;2.40;;;2.30;;
9124;SDS011;4597;48.730;9.114;2022-11-20T10:04:08;2.73;;;2.53;;
9124;SDS011;4597;48.730;9.114;2022-11-20T10:06:52;2.00;;;1.90;;
9124;SDS011;4597;48.730;9.114;2022-11-20T10:09:27;2.57;;;2.37;;
9124;SDS011;4597;48.730;9.114;2022-11-20T10:12:11;1.80;;;1.70;;
9124;SDS011;4597;48.730;9.114;2022-11-20T10:20:15;1.50;;;1.40;;
9124;SDS011;4597;48.730;9.114;2022-11-20T10:25:40;1.70;;;1.67;;
9124;SDS011;4597;48.730;9.114;2022-11-20T10:31:13;1.70;;;1.60;;
9124;SDS011;4597;48.730;9.114;2022-11-20T10:33:48;1.60;;;1.50;;
9124;SDS011;4597;48.730;9.114;2022-11-20T10:36:19;2.07;;;1.97;;
9124;SDS011;4597;48.730;9.114;2022-11-20T10:38:57;2.20;;;2.10;;
9124;SDS011;4597;48.730;9.114;2022-11-20T10:41:27;2.53;;;2.07;;
9124;SDS011;4597;48.730;9.114;2022-11-20T10:46:45;2.33;;;2.23;;
9124;SDS011;4597;48.730;9.114;2022-11-20T10:49:12;2.33;;;2.20;;
9124;SDS011;4597;48.730;9.114;2022-11-20T10:51:52;3.30;;;2.50;;
9124;SDS011;4597;48.730;9.114;2022-11-20T11:00:11;3.33;;;3.03;;
9124;SDS011;4597;48.730;9.114;2022-11-20T11:02:43;2.90;;;2.70;;
9124;SDS011;4597;48.730;9.114;2022-11-20T11:07:45;4.30;;;3.23;;
9124;SDS011;4597;48.730;9.114;2022-11-20T11:13:07;2.80;;;2.60;;
9124;SDS011;4597;48.730;9.114;2022-11-20T11:15:40;2.90;;;2.60;;
9124;SDS011;4597;48.730;9.114;2022-11-20T11:18:22;3.47;;;3.13;;
9124;SDS011;4597;48.730;9.114;2022-11-20T11:20:49;2.90;;;2.60;;
9124;SDS011;4597;48.730;9.114;2022-11-20T11:23:26;3.70;;;2.73;;
9124;SDS011;4597;48.730;9.114;2022-11-20T11:26:02;2.90;;;2.53;;
9124;SDS011;4597;48.730;9.114;2022-11-20T11:28:29;2.73;;;2.40;;
9124;SDS011;4597;48.730;9.114;2022-11-20T11:30:55;2.63;;;2.43;;
9124;SDS011;4597;48.730;9.114;2022-11-20T11:33:22;2.80;;;2.40;;
9124;SDS011;4597;48.730;9.114;2022-11-20T11:35:53;4.17;;;1.90;;
9124;SDS011;4597;48.730;9.114;2022-11-20T11:38:44;2.97;;;2.27;;
9124;SDS011;4597;48.730;9.114;2022-11-20T11:41:10;3.40;;;2.40;;
9124;SDS011;4597;48.730;9.114;2022-11-20T11:43:49;2.20;;;2.00;;
9124;SDS011;4597;48.730;9.114;2022-11-20T11:46:35;2.27;;;2.10;;
9124;SDS011;4597;48.730;9.114;2022-11-20T11:54:24;2.30;;;2.00;;
9124;SDS011;4597;48.730;9.114;2022-11-20T11:56:55;2.07;;;1.97;;
9124;SDS011;4597;48.730;9.114;2022-11-20T11:59:46;3.17;;;2.07;;
9124;SDS011;4597;48.730;9.114;2022-11-20T12:02:33;2.23;;;2.13;;
9124;SDS011;4597;48.730;9.114;2022-11-20T12:16:29;2.77;;;2.30;;
9124;SDS011;4597;48.730;9.114;2022-11-20T12:18:59;2.60;;;1.70;;
9124;SDS011;4597;48.730;9.114;2022-11-20T12:21:32;1.70;;;1.60;;
9124;SDS011;4597;48.730;9.114;2022-11-20T12:30:09;2.27;;;1.37;;
9124;SDS011;4597;48.730;9.114;2022-11-20T12:35:32;2.47;;;1.50;;
9124;SDS011;4597;48.730;9.114;2022-11-20T12:49:46;2.40;;;1.50;;
9124;SDS011;4597;48.730;9.114;2022-11-20T12:52:30;2.63;;;2.30;;
9124;SDS011;4597;48.730;9.114;2022-11-20T12:55:08;2.30;;;1.60;;
9124;SDS011;4597;48.730;9.114;2022-11-20T13:00:15;2.20;;;1.40;;
9124;SDS011;4597;48.730;9.114;2022-11-20T13:05:43;3.00;;;1.40;;
9124;SDS011;4597;48.730;9.114;2022-11-20T13:08:24;3.03;;;1.50;;
9124;SDS011;4597;48.730;9.114;2022-11-20T13:10:58;2.53;;;1.47;;
9124;SDS011;4597;48.730;9.114;2022-11-20T13:19:11;2.30;;;1.30;;
9124;SDS011;4597;48.730;9.114;2022-11-20T13:21:39;2.67;;;2.37;;
9124;SDS011;4597;48.730;9.114;2022-11-20T13:24:07;3.70;;;1.57;;
9124;SDS011;4597;48.730;9.114;2022-11-20T13:29:38;2.30;;;1.33;;
9124;SDS011;4597;48.730;9.114;2022-11-20T13:32:18;2.20;;;1.63;;
9124;SDS011;4597;48.730;9.114;2022-11-20T13:34:56;2.93;;;1.90;;
9124;SDS011;4597;48.730;9.114;2022-11-20T13:37:27;1.93;;;1.67;;
9124;SDS011;4597;48.730;9.114;2022-11-20T13:45:29;3.00;;;1.57;;
9124;SDS011;4597;48.730;9.114;2022-11-20T13:47:57;3.30;;;1.53;;
9124;SDS011;4597;48.730;9.114;2022-11-20T13:56:01;1.87;;;1.73;;
9124;SDS011;4597;48.730;9.114;2022-11-20T14:01:24;2.10;;;1.70;;
9124;SDS011;4597;48.730;9.114;2022-11-20T14:03:53;2.70;;;2.33;;
9124;SDS011;4597;48.730;9.114;2022-11-20T14:08:52;2.10;;;2.00;;
9124;SDS011;4597;48.730;9.114;2022-11-20T14:11:19;1.33;;;1.27;;
9124;SDS011;4597;48.730;9.114;2022-11-20T14:16:30;1.60;;;1.50;;
9124;SDS011;4597;48.730;9.114;2022-11-20T14:19:17;3.73;;;1.70;;
9124;SDS011;4597;48.730;9.114;2022-11-20T14:21:44;2.07;;;1.93;;
9124;SDS011;4597;48.730;9.114;2022-11-20T14:24:10;1.67;;;1.53;;
9124;SDS011;4597;48.730;9.114;2022-11-20T14:26:38;1.77;;;1.60;;
9124;SDS011;4597;48.730;9.114;2022-11-20T14:29:14;1.20;;;1.10;;
9124;SDS011;4597;48.730;9.114;2022-11-20T14:31:42;2.23;;;1.37;;
9124;SDS011;4597;48.730;9.114;2022-11-20T14:34:15;1.97;;;1.30;;
9124;SDS011;4597;48.730;9.114;2022-11-20T14:36:44;1.93;;;1.80;;
9124;SDS011;4597;48.730;9.114;2022-11-20T14:39:56;1.63;;;1.53;;
9124;SDS011;4597;48.730;9.114;2022-11-20T14:41:58;2.70;;;1.70;;
9124;SDS011;4597;48.730;9.114;2022-11-20T14:44:29;1.83;;;1.60;;
9124;SDS011;4597;48.730;9.114;2022-11-20T14:46:57;1.77;;;1.50;;
9124;SDS011;4597;48.730;9.114;2022-11-20T14:49:25;2.30;;;2.10;;
9124;SDS011;4597;48.730;9.114;2022-11-20T14:52:01;2.30;;;2.10;;
9124;SDS011;4597;48.730;9.114;2022-11-20T14:54:43;2.00;;;1.83;;
9124;SDS011;4597;48.730;9.114;2022-11-20T14:57:20;3.10;;;2.77;;
9124;SDS011;4597;48.730;9.114;2022-11-20T14:59:49;2.47;;;2.27;;
9124;SDS011;4597;48.730;9.114;2022-11-20T15:02:14;3.23;;;2.93;;
9124;SDS011;4597;48.730;9.114;2022-11-20T15:04:59;1.83;;;1.50;;
9124;SDS011;4597;48.730;9.114;2022-11-20T15:07:32;2.77;;;1.53;;
9124;SDS011;4597;48.730;9.114;2022-11-20T15:10:05;1.33;;;1.23;;
9124;SDS011;4597;48.730;9.114;2022-11-20T15:12:34;1.70;;;1.50;;
9124;SDS011;4597;48.730;9.114;2022-11-20T15:15:02;1.40;;;1.30;;
9124;SDS011;4597;48.730;9.114;2022-11-20T15:17:30;2.57;;;1.60;;
9124;SDS011;4597;48.730;9.114;2022-11-20T15:19:57;2.63;;;1.87;;
9124;SDS011;4597;48.730;9.114;2022-11-20T15:22:23;2.03;;;1.33;;
9124;SDS011;4597;48.730;9.114;2022-11-20T15:24:49;3.43;;;1.53;;
9124;SDS011;4597;48.730;9.114;2022-11-20T15:27:14;2.63;;;1.63;;
9124;SDS011;4597;48.730;9.114;2022-11-20T15:29:40;3.70;;;1.90;;
9124;SDS011;4597;48.730;9.114;2022-11-20T15:32:07;2.37;;;1.60;;
9124;SDS011;4597;48.730;9.114;2022-11-20T15:34:33;2.20;;;1.70;;
9124;SDS011;4597;48.730;9.114;2022-11-20T15:36:59;2.43;;;1.60;;
9124;SDS011;4597;48.730;9.114;2022-11-20T15:39:24;3.27;;;1.77;;
9124;SDS011;4597;48.730;9.114;2022-11-20T15:41:50;1.93;;;1.30;;
9124;SDS011;4597;48.730;9.114;2022-11-20T15:44:15;2.23;;;1.60;;
9124;SDS011;4597;48.730;9.114;2022-11-20T15:46:41;1.60;;;1.50;;
9124;SDS011;4597;48.730;9.114;2022-11-20T15:49:11;1.40;;;1.40;;
9124;SDS011;4597;48.730;9.114;2022-11-20T15:51:39;2.47;;;2.27;;
9124;SDS011;4597;48.730;9.114;2022-11-20T15:54:14;3.50;;;3.13;;
9124;SDS011;4597;48.730;9.114;2022-11-20T15:56:45;6.63;;;4.50;;
9124;SDS011;4597;48.730;9.114;2022-11-20T15:59:13;8.23;;;6.33;;
9124;SDS011;4597;48.730;9.114;2022-11-20T16:01:41;11.87;;;8.20;;
9124;SDS011;4597;48.730;9.114;2022-11-20T16:04:13;6.47;;;4.60;;
9124;SDS011;4597;48.730;9.114;2022-11-20T16:06:41;2.70;;;2.50;;
9124;SDS011;4597;48.730;9.114;2022-11-20T16:09:07;2.93;;;2.73;;
9124;SDS011;4597;48.730;9.114;2022-11-20T16:11:33;3.80;;;2.80;;
9124;SDS011;4597;48.730;9.114;2022-11-20T16:14:01;4.97;;;4.47;;
9124;SDS011;4597;48.730;9.114;2022-11-20T16:16:46;5.00;;;3.83;;
9124;SDS011;4597;48.730;9.114;2022-11-20T16:19:12;4.07;;;3.70;;
9124;SDS011;4597;48.730;9.114;2022-11-20T16:21:39;7.90;;;7.10;;
9124;SDS011;4597;48.730;9.114;2022-11-20T16:24:06;5.00;;;4.50;;
9124;SDS011;4597;48.730;9.114;2022-11-20T16:26:33;4.07;;;3.77;;
9124;SDS011;4597;48.730;9.114;2022-11-20T16:28:59;4.40;;;4.00;;
9124;SDS011;4597;48.730;9.114;2022-11-20T16:31:25;2.93;;;2.73;;
9124;SDS011;4597;48.730;9.114;2022-11-20T16:33:55;2.67;;;2.47;;
9124;SDS011;4597;48.730;9.114;2022-11-20T16:36:22;2.90;;;2.67;;
9124;SDS011;4597;48.730;9.114;2022-11-20T16:38:52;2.50;;;2.30;;
9124;SDS011;4597;48.730;9.114;2022-11-20T16:41:19;2.93;;;2.37;;
9124;SDS011;4597;48.730;9.114;2022-11-20T16:43:45;2.87;;;2.50;;
9124;SDS011;4597;48.730;9.114;2022-11-20T16:46:16;4.13;;;2.70;;
9124;SDS011;4597;48.730;9.114;2022-11-20T16:48:44;3.63;;;2.50;;
9124;SDS011;4597;48.730;9.114;2022-11-20T16:51:10;3.40;;;2.90;;
9124;SDS011;4597;48.730;9.114;2022-11-20T16:53:37;4.10;;;3.00;;
9124;SDS011;4597;48.730;9.114;2022-11-20T16:56:13;5.40;;;2.30;;
9124;SDS011;4597;48.730;9.114;2022-11-20T16:58:41;2.53;;;1.90;;
9124;SDS011;4597;48.730;9.114;2022-11-20T17:01:08;3.53;;;2.40;;
9124;SDS011;4597;48.730;9.114;2022-11-20T17:03:44;2.23;;;2.03;;
9124;SDS011;4597;48.730;9.114;2022-11-20T17:06:15;1.80;;;1.70;;
9124;SDS011;4597;48.730;9.114;2022-11-20T17:08:42;3.13;;;1.80;;
9124;SDS011;4597;48.730;9.114;2022-11-20T17:11:09;2.30;;;1.90;;
9124;SDS011;4597;48.730;9.114;2022-11-20T17:13:37;2.27;;;2.00;;
9124;SDS011;4597;48.730;9.114;2022-11-20T17:16:03;2.57;;;2.37;;